Diadema Argentina, Argentina
Current Conditions -  °F | °C
As of 8:00 PM on Friday 28 Nov 2014 (Local Time) from SAVC Reporting Station
Scattered Clouds Scattered Clouds  
Wind Chill: 20°   Ceiling: Unl
Heat Index: 20°   Visibility: 6mi
Dew Point:   Wind: 12mph
Humidity: 40%   Direction: 290°WNW
Pressure: 29.56"   Gusts: NA
Location:  45.77°S, 67.67°W
Report Text: SAVC 282300Z 29010KT 9999 FEW035TCU SCT040 20/06 Q1001
Loading
Personal Weather Stations






























Interactive Weather Map New forecast layout! Learn more

10-Day Weather Forecast

Advertisements
Track Severe Weather on mobile